createdAt,value
2023-04-26T00:00:30.645Z,93191.72
2023-04-26T00:03:00.104Z,93187.53
2023-04-26T00:05:28.444Z,93177.53
2023-04-26T00:07:55.211Z,93185.22
2023-04-26T00:10:22.301Z,93178.31
2023-04-26T00:12:48.946Z,93177.06
2023-04-26T00:15:15.707Z,93172.81
2023-04-26T00:17:42.994Z,93166.75
2023-04-26T00:20:11.963Z,93160.59
2023-04-26T00:22:38.839Z,93156.78
2023-04-26T00:25:06.029Z,93165.88
2023-04-26T00:27:32.757Z,93167.50
2023-04-26T00:29:59.369Z,93159.47
2023-04-26T00:32:26.161Z,93154.91
2023-04-26T00:34:52.938Z,93154.91
2023-04-26T00:37:19.647Z,93154.59
2023-04-26T00:39:46.842Z,93154.44
2023-04-26T00:42:13.536Z,93158.66
2023-04-26T00:44:40.502Z,93155.22
2023-04-26T00:47:07.235Z,93155.63
2023-04-26T00:49:34.191Z,93157.53
2023-04-26T00:52:01.054Z,93159.75
2023-04-26T00:54:28.926Z,93152.69
2023-04-26T00:56:55.858Z,93154.66
2023-04-26T00:59:23.438Z,93151.50
2023-04-26T01:01:50.095Z,93155.84
2023-04-26T01:04:18.071Z,93160.81
2023-04-26T01:06:46.063Z,93155.03
2023-04-26T01:09:15.669Z,93162.25
2023-04-26T01:11:43.952Z,93167.78
2023-04-26T01:14:11.485Z,93165.06
2023-04-26T01:16:39.528Z,93155.16
2023-04-26T01:19:13.580Z,93150.53
2023-04-26T01:21:41.142Z,93142.94
2023-04-26T01:24:10.566Z,93137.59
2023-04-26T01:26:44.172Z,93139.84
2023-04-26T01:29:21.625Z,93148.22
2023-04-26T01:31:49.003Z,93157.44
2023-04-26T01:34:16.572Z,93161.81
2023-04-26T01:36:43.391Z,93161.97
2023-04-26T01:39:10.428Z,93159.25
2023-04-26T01:41:37.145Z,93160.50
2023-04-26T01:44:03.985Z,93163.56
2023-04-26T01:46:30.853Z,93164.22
2023-04-26T01:48:57.593Z,93157.31
2023-04-26T01:51:24.387Z,93151.22
2023-04-26T01:53:51.016Z,93147.34
2023-04-26T01:56:18.451Z,93144.44
2023-04-26T01:58:45.551Z,93143.53
2023-04-26T02:01:12.320Z,93136.72
2023-04-26T02:03:39.196Z,93133.34
2023-04-26T02:06:06.039Z,93124.50
2023-04-26T02:08:32.774Z,93133.78
2023-04-26T02:10:59.596Z,93131.50
2023-04-26T02:13:26.360Z,93137.25
2023-04-26T02:15:53.159Z,93133.44
2023-04-26T02:18:22.158Z,93124.63
2023-04-26T02:20:49.272Z,93130.41
2023-04-26T02:23:15.997Z,93127.31
2023-04-26T02:25:45.923Z,93123.13
2023-04-26T02:28:12.645Z,93126.94
2023-04-26T02:30:39.279Z,93126.50
2023-04-26T02:33:06.059Z,93139.97
2023-04-26T02:35:32.862Z,93135.34
2023-04-26T02:37:59.521Z,93135.94
2023-04-26T02:40:26.150Z,93131.22
2023-04-26T02:42:52.839Z,93131.69
2023-04-26T02:45:19.464Z,93134.38
2023-04-26T02:47:46.088Z,93126.56
2023-04-26T02:50:12.723Z,93119.19
2023-04-26T02:52:39.433Z,93111.41
2023-04-26T02:55:06.829Z,93109.16
2023-04-26T02:57:33.865Z,93110.28
2023-04-26T03:00:00.861Z,93109.25
2023-04-26T03:02:27.689Z,93114.72
2023-04-26T03:04:56.052Z,93111.75
2023-04-26T03:07:22.923Z,93116.94
2023-04-26T03:09:49.546Z,93113.66
2023-04-26T03:12:16.672Z,93120.97
2023-04-26T03:14:43.219Z,93109.09
2023-04-26T03:17:09.878Z,93112.50
2023-04-26T03:19:36.651Z,93112.75
2023-04-26T03:22:03.472Z,93118.31
2023-04-26T03:24:30.809Z,93111.84
2023-04-26T03:26:58.052Z,93114.56
2023-04-26T03:29:24.674Z,93118.81
2023-04-26T03:31:51.408Z,93114.13
2023-04-26T03:34:18.050Z,93119.91
2023-04-26T03:36:44.668Z,93117.25
2023-04-26T03:39:11.527Z,93123.00
2023-04-26T03:41:39.662Z,93127.66
2023-04-26T03:44:06.731Z,93122.63
2023-04-26T03:46:33.417Z,93131.38
2023-04-26T03:49:00.070Z,93133.19
2023-04-26T03:51:28.327Z,93130.94
2023-04-26T03:53:55.636Z,93134.06
2023-04-26T03:56:22.293Z,93134.75
2023-04-26T03:58:48.925Z,93138.19
2023-04-26T04:01:16.000Z,93142.88
2023-04-26T04:03:42.912Z,93148.09
2023-04-26T04:06:09.647Z,93145.66
2023-04-26T04:08:36.316Z,93143.75
2023-04-26T04:11:02.998Z,93148.06
2023-04-26T04:13:29.668Z,93152.88
2023-04-26T04:15:56.373Z,93154.38
2023-04-26T04:18:23.042Z,93146.72
2023-04-26T04:20:49.670Z,93147.44
2023-04-26T04:23:16.525Z,93152.34
2023-04-26T04:25:44.160Z,93152.47
2023-04-26T04:28:12.061Z,93156.66
2023-04-26T04:30:38.709Z,93161.44
2023-04-26T04:33:05.600Z,93165.16
2023-04-26T04:35:34.371Z,93170.25
2023-04-26T04:38:03.124Z,93162.94
2023-04-26T04:40:30.384Z,93158.00
2023-04-26T04:42:56.999Z,93156.59
2023-04-26T04:45:23.789Z,93165.81
2023-04-26T04:47:50.502Z,93163.50
2023-04-26T04:50:17.704Z,93168.94
2023-04-26T04:52:44.438Z,93165.41
2023-04-26T04:55:11.167Z,93165.84
2023-04-26T04:57:37.860Z,93164.66
2023-04-26T05:00:12.961Z,93161.69
2023-04-26T05:02:39.690Z,93165.94
2023-04-26T05:05:07.004Z,93173.94
2023-04-26T05:07:34.088Z,93161.94
2023-04-26T05:10:00.882Z,93169.63
2023-04-26T05:12:27.523Z,93160.53
2023-04-26T05:14:54.127Z,93167.50
2023-04-26T05:17:20.920Z,93166.38
2023-04-26T05:19:47.660Z,93162.56
2023-04-26T05:22:18.573Z,93168.28
2023-04-26T05:24:47.131Z,93169.44
2023-04-26T05:27:14.611Z,93169.09
2023-04-26T05:29:41.836Z,93176.34
2023-04-26T05:32:08.799Z,93168.69
2023-04-26T05:34:36.654Z,93171.03
2023-04-26T05:37:06.804Z,93176.00
2023-04-26T05:39:33.472Z,93178.72
2023-04-26T05:42:00.139Z,93181.75
2023-04-26T05:44:26.712Z,93185.59
2023-04-26T05:46:53.375Z,93184.44
2023-04-26T05:49:19.962Z,93192.84
2023-04-26T05:51:46.584Z,93192.88
2023-04-26T05:54:13.192Z,93191.34
2023-04-26T05:56:39.849Z,93188.28
2023-04-26T05:59:06.392Z,93190.56
2023-04-26T06:01:33.072Z,93203.16
2023-04-26T06:04:01.114Z,93205.72
2023-04-26T06:06:28.466Z,93203.94
2023-04-26T06:08:55.639Z,93193.25
2023-04-26T06:11:22.459Z,93204.75
2023-04-26T06:13:49.124Z,93212.69
2023-04-26T06:16:16.602Z,93214.19
2023-04-26T06:18:43.866Z,93213.91
2023-04-26T06:21:10.640Z,93213.72
2023-04-26T06:23:37.291Z,93219.56
2023-04-26T06:26:04.000Z,93215.66
2023-04-26T06:28:31.014Z,93215.66
2023-04-26T06:30:57.695Z,93210.31
2023-04-26T06:33:24.371Z,93214.66
2023-04-26T06:35:52.492Z,93214.56
2023-04-26T06:38:19.100Z,93217.94
2023-04-26T06:40:45.859Z,93214.72
2023-04-26T06:43:12.474Z,93223.88
2023-04-26T06:45:40.061Z,93217.81
2023-04-26T06:48:08.491Z,93219.38
2023-04-26T06:50:38.649Z,93225.25
2023-04-26T06:53:05.311Z,93229.44
2023-04-26T06:55:33.591Z,93227.50
2023-04-26T06:58:00.667Z,93227.34
2023-04-26T07:00:28.145Z,93222.75
2023-04-26T07:02:54.966Z,93222.00
2023-04-26T07:05:22.023Z,93233.88
2023-04-26T07:07:50.396Z,93241.53
2023-04-26T07:10:17.395Z,93242.59
2023-04-26T07:12:44.309Z,93244.13
2023-04-26T07:15:11.580Z,93232.22
2023-04-26T07:17:38.268Z,93225.75
2023-04-26T07:20:05.852Z,93216.66
2023-04-26T07:22:32.549Z,93232.34
2023-04-26T07:24:59.264Z,93238.34
2023-04-26T07:27:26.104Z,93226.06
2023-04-26T07:29:56.312Z,93226.09
2023-04-26T07:32:23.408Z,93228.75
2023-04-26T07:34:50.242Z,93229.22
2023-04-26T07:37:16.881Z,93247.13
2023-04-26T07:39:43.487Z,93251.75
2023-04-26T07:42:10.070Z,93249.47
2023-04-26T07:44:36.641Z,93251.78
2023-04-26T07:47:03.367Z,93255.69
2023-04-26T07:49:29.996Z,93252.44
2023-04-26T07:51:58.215Z,93252.91
2023-04-26T07:54:24.773Z,93251.50
2023-04-26T07:56:51.382Z,93253.78
2023-04-26T07:59:18.001Z,93243.06
2023-04-26T08:01:44.670Z,93253.56
2023-04-26T08:04:11.669Z,93253.53
2023-04-26T08:06:39.455Z,93250.34
2023-04-26T08:09:06.221Z,93262.75
2023-04-26T08:11:32.981Z,93258.19
2023-04-26T08:13:59.692Z,93255.75
2023-04-26T08:16:26.366Z,93255.31
2023-04-26T08:18:53.017Z,93260.94
2023-04-26T08:21:19.706Z,93256.47
2023-04-26T08:23:46.542Z,93267.19
2023-04-26T08:26:13.166Z,93249.94
2023-04-26T08:28:40.095Z,93256.38
2023-04-26T08:31:06.737Z,93257.28
2023-04-26T08:33:33.338Z,93256.47
2023-04-26T08:36:01.881Z,93257.25
2023-04-26T08:38:29.857Z,93257.16
2023-04-26T08:40:59.402Z,93249.22
2023-04-26T08:43:27.579Z,93250.38
2023-04-26T08:45:55.392Z,93242.28
2023-04-26T08:48:23.230Z,93259.50
2023-04-26T08:50:51.446Z,93253.81
2023-04-26T08:53:18.129Z,93259.56
2023-04-26T08:55:51.116Z,93254.59
2023-04-26T08:58:18.951Z,93260.28
2023-04-26T09:00:48.802Z,93259.50
2023-04-26T09:03:15.936Z,93251.09
2023-04-26T09:05:44.396Z,93253.28
2023-04-26T09:08:17.627Z,93251.13
2023-04-26T09:10:44.473Z,93265.28
2023-04-26T09:13:11.506Z,93254.97
2023-04-26T09:15:38.830Z,93259.56
2023-04-26T09:18:22.759Z,93261.06
2023-04-26T09:21:08.900Z,93264.47
2023-04-26T09:23:35.997Z,93272.97
2023-04-26T09:26:18.149Z,93271.44
2023-04-26T09:28:46.509Z,93266.47
2023-04-26T09:31:36.586Z,93266.47
2023-04-26T09:34:03.463Z,93266.84
2023-04-26T09:36:30.050Z,93271.78
2023-04-26T09:38:56.663Z,93253.38
2023-04-26T09:41:23.409Z,93262.19
2023-04-26T09:43:52.617Z,93269.06
2023-04-26T09:46:24.612Z,93256.88
2023-04-26T09:49:01.837Z,93260.31
2023-04-26T09:51:28.898Z,93257.16
2023-04-26T09:53:56.729Z,93256.81
2023-04-26T09:56:23.419Z,93257.94
2023-04-26T09:58:53.469Z,93257.44
2023-04-26T10:01:20.450Z,93251.88
2023-04-26T10:03:47.626Z,93244.13
2023-04-26T10:06:14.984Z,93247.50
2023-04-26T10:08:41.767Z,93258.72
2023-04-26T10:11:11.285Z,93254.09
2023-04-26T10:13:38.614Z,93256.84
2023-04-26T10:16:06.871Z,93249.38
2023-04-26T10:18:34.284Z,93240.13
2023-04-26T10:21:11.131Z,93253.47
2023-04-26T10:23:38.306Z,93246.66
2023-04-26T10:26:05.522Z,93258.94
2023-04-26T10:28:41.678Z,93245.66
2023-04-26T10:31:08.308Z,93253.38
2023-04-26T10:33:35.066Z,93253.72
2023-04-26T10:36:10.606Z,93249.38
2023-04-26T10:39:01.192Z,93249.81
2023-04-26T10:41:36.145Z,93245.22
2023-04-26T10:44:39.079Z,93246.44
2023-04-26T10:47:07.794Z,93246.41
2023-04-26T10:49:48.586Z,93246.38
2023-04-26T10:52:19.801Z,93242.53
2023-04-26T10:54:50.842Z,93241.88
2023-04-26T10:57:17.791Z,93238.75
2023-04-26T11:00:10.723Z,93244.59
2023-04-26T11:02:51.100Z,93230.09
2023-04-26T11:05:42.579Z,93252.25
2023-04-26T11:08:19.481Z,93243.09
2023-04-26T11:10:52.180Z,93243.59
2023-04-26T11:13:19.881Z,93245.00
2023-04-26T11:15:46.822Z,93241.94
2023-04-26T11:18:13.605Z,93246.22
2023-04-26T11:20:40.384Z,93240.00
2023-04-26T11:23:07.944Z,93245.53
2023-04-26T11:25:34.640Z,93239.59
2023-04-26T11:28:02.673Z,93246.84
2023-04-26T11:30:33.378Z,93238.84
2023-04-26T11:33:01.977Z,93230.81
2023-04-26T11:35:29.851Z,93240.03
2023-04-26T11:38:00.939Z,93249.31
2023-04-26T11:40:30.031Z,93243.31
2023-04-26T11:43:05.290Z,93254.00
2023-04-26T11:45:34.313Z,93242.41
2023-04-26T11:48:03.153Z,93250.50
2023-04-26T11:50:32.240Z,93238.22
2023-04-26T11:53:01.190Z,93244.75
2023-04-26T11:55:29.618Z,93244.16
2023-04-26T11:57:57.298Z,93237.00
2023-04-26T12:00:25.057Z,93237.25
2023-04-26T12:02:52.904Z,93232.69
2023-04-26T12:05:24.794Z,93238.69
2023-04-26T12:07:53.691Z,93232.75
2023-04-26T12:10:22.504Z,93237.97
2023-04-26T12:12:51.205Z,93254.75
2023-04-26T12:15:25.828Z,93245.25
2023-04-26T12:17:57.444Z,93237.25
2023-04-26T12:20:31.645Z,93246.00
2023-04-26T12:23:09.559Z,93231.28
2023-04-26T12:25:39.289Z,93228.63
2023-04-26T12:28:12.736Z,93236.31
2023-04-26T12:30:40.902Z,93234.53
2023-04-26T12:33:16.504Z,93237.25
2023-04-26T12:35:44.754Z,93238.19
2023-04-26T12:38:12.295Z,93221.28
2023-04-26T12:40:39.844Z,93228.59
2023-04-26T12:43:06.966Z,93229.09
2023-04-26T12:45:33.902Z,93221.69
2023-04-26T12:48:00.566Z,93223.25
2023-04-26T12:50:27.655Z,93234.75
2023-04-26T12:52:54.615Z,93227.13
2023-04-26T12:55:21.535Z,93227.00
2023-04-26T12:57:48.241Z,93234.97
2023-04-26T13:00:17.123Z,93216.16
2023-04-26T13:02:44.497Z,93225.38
2023-04-26T13:05:12.009Z,93241.78
2023-04-26T13:07:40.872Z,93244.06
2023-04-26T13:10:09.222Z,93245.28
2023-04-26T13:12:39.218Z,93245.75
2023-04-26T13:15:08.130Z,93248.03
2023-04-26T13:17:37.240Z,93241.09
2023-04-26T13:20:06.123Z,93248.34
2023-04-26T13:22:33.402Z,93248.75
2023-04-26T13:25:00.062Z,93259.47
2023-04-26T13:27:27.899Z,93263.97
2023-04-26T13:29:57.146Z,93295.16
2023-04-26T13:32:23.858Z,93276.41
2023-04-26T13:34:51.834Z,93274.50
2023-04-26T13:37:21.264Z,93270.28
2023-04-26T13:39:48.280Z,93276.81
2023-04-26T13:42:16.443Z,93279.50
2023-04-26T13:44:43.821Z,93278.72
2023-04-26T13:47:10.510Z,93279.47
2023-04-26T13:49:38.467Z,93287.03
2023-04-26T13:52:05.145Z,93290.97
2023-04-26T13:54:31.849Z,93284.81
2023-04-26T13:56:58.529Z,93292.09
2023-04-26T13:59:25.276Z,93312.38
2023-04-26T14:01:54.213Z,93300.13
2023-04-26T14:04:22.248Z,93302.50
2023-04-26T14:06:49.038Z,93309.97
2023-04-26T14:09:16.207Z,93309.59
2023-04-26T14:11:42.894Z,93317.75
2023-04-26T14:14:09.501Z,93313.22
2023-04-26T14:16:36.258Z,93322.75
2023-04-26T14:19:02.922Z,93321.59
2023-04-26T14:21:29.597Z,93319.53
2023-04-26T14:23:56.586Z,93323.50
2023-04-26T14:26:26.133Z,93334.22
2023-04-26T14:28:52.919Z,93340.50
2023-04-26T14:31:19.953Z,93338.53
2023-04-26T14:33:46.755Z,93340.72
2023-04-26T14:36:13.329Z,93336.97
2023-04-26T14:38:43.776Z,93333.13
2023-04-26T14:41:15.598Z,93344.16
2023-04-26T14:43:43.093Z,93349.50
2023-04-26T14:46:09.730Z,93353.47
2023-04-26T14:48:36.711Z,93382.59
2023-04-26T14:51:03.372Z,93364.78
2023-04-26T14:53:30.093Z,93360.25
2023-04-26T14:56:00.368Z,93382.00
2023-04-26T14:58:27.398Z,93365.63
2023-04-26T15:00:54.525Z,93367.84
2023-04-26T15:03:21.443Z,93377.13
2023-04-26T15:05:48.130Z,93384.00
2023-04-26T15:08:14.916Z,93393.16
2023-04-26T15:10:41.714Z,93398.94
2023-04-26T15:13:08.341Z,93391.31
2023-04-26T15:15:35.007Z,93402.84
2023-04-26T15:18:02.089Z,93404.03
2023-04-26T15:20:28.772Z,93423.81
2023-04-26T15:22:55.416Z,93419.63
2023-04-26T15:25:22.123Z,93420.50
2023-04-26T15:27:52.081Z,93419.66
2023-04-26T15:30:18.715Z,93414.72
2023-04-26T15:32:48.428Z,93419.09
2023-04-26T15:35:15.790Z,93428.88
2023-04-26T15:37:44.111Z,93431.81
2023-04-26T15:40:12.207Z,93443.69
2023-04-26T15:42:39.378Z,93444.34
2023-04-26T15:45:07.028Z,93442.44
2023-04-26T15:47:35.500Z,93439.06
2023-04-26T15:50:03.971Z,93440.69
2023-04-26T15:52:36.265Z,93444.31
2023-04-26T15:55:07.402Z,93448.50
2023-04-26T15:57:34.715Z,93448.28
2023-04-26T16:00:02.385Z,93456.41
2023-04-26T16:02:29.201Z,93465.09
2023-04-26T16:04:56.583Z,93467.47
2023-04-26T16:07:23.585Z,93463.50
2023-04-26T16:09:50.231Z,93463.31
2023-04-26T16:12:16.844Z,93468.78
2023-04-26T16:14:43.535Z,93472.34
2023-04-26T16:17:10.152Z,93466.66
2023-04-26T16:19:37.348Z,93470.50
2023-04-26T16:22:04.287Z,93475.13
2023-04-26T16:24:31.225Z,93474.69
2023-04-26T16:26:57.996Z,93463.84
2023-04-26T16:29:25.284Z,93478.09
2023-04-26T16:31:52.797Z,93476.22
2023-04-26T16:34:19.990Z,93483.94
2023-04-26T16:36:46.806Z,93478.31
2023-04-26T16:39:15.843Z,93488.88
2023-04-26T16:41:43.038Z,93492.59
2023-04-26T16:44:10.145Z,93501.44
2023-04-26T16:46:37.423Z,93505.16
2023-04-26T16:49:09.558Z,93508.53
2023-04-26T16:51:37.769Z,93504.03
2023-04-26T16:54:04.676Z,93502.44
2023-04-26T16:56:32.277Z,93511.31
2023-04-26T16:58:59.170Z,93507.56
2023-04-26T17:01:26.075Z,93510.72
2023-04-26T17:03:53.013Z,93507.44
2023-04-26T17:06:20.054Z,93520.19
2023-04-26T17:08:46.750Z,93519.28
2023-04-26T17:11:15.398Z,93531.78
2023-04-26T17:13:42.382Z,93530.00
2023-04-26T17:16:09.625Z,93534.41
2023-04-26T17:18:37.167Z,93533.09
2023-04-26T17:21:04.927Z,93539.88
2023-04-26T17:23:32.932Z,93549.72
2023-04-26T17:26:00.524Z,93555.56
2023-04-26T17:28:27.243Z,93559.28
2023-04-26T17:30:53.845Z,93558.22
2023-04-26T17:33:20.755Z,93566.56
2023-04-26T17:35:47.544Z,93566.94
2023-04-26T17:38:14.174Z,93563.84
2023-04-26T17:40:40.825Z,93566.00
2023-04-26T17:43:07.700Z,93573.00
2023-04-26T17:45:34.432Z,93570.78
2023-04-26T17:48:01.040Z,93576.16
2023-04-26T17:50:27.713Z,93580.97
2023-04-26T17:52:54.303Z,93579.13
2023-04-26T17:55:21.188Z,93583.19
2023-04-26T17:57:47.792Z,93592.28
2023-04-26T18:00:15.012Z,93578.09
2023-04-26T18:02:42.126Z,93590.16
2023-04-26T18:05:09.320Z,93593.09
2023-04-26T18:07:36.153Z,93597.06
2023-04-26T18:10:04.207Z,93596.13
2023-04-26T18:12:31.882Z,93598.97
2023-04-26T18:14:58.590Z,93609.09
2023-04-26T18:17:25.679Z,93613.63
2023-04-26T18:19:52.417Z,93611.59
2023-04-26T18:22:19.087Z,93623.28
2023-04-26T18:24:46.848Z,93628.88
2023-04-26T18:27:14.157Z,93631.34
2023-04-26T18:29:41.470Z,93642.19
2023-04-26T18:32:08.207Z,93642.91
2023-04-26T18:34:34.897Z,93644.00
2023-04-26T18:37:01.619Z,93642.69
2023-04-26T18:39:28.345Z,93646.38
2023-04-26T18:41:54.921Z,93646.59
2023-04-26T18:44:21.759Z,93643.91
2023-04-26T18:46:48.622Z,93649.50
2023-04-26T18:49:15.440Z,93647.19
2023-04-26T18:51:42.083Z,93655.06
2023-04-26T18:54:08.768Z,93655.25
2023-04-26T18:56:37.472Z,93660.00
2023-04-26T18:59:04.210Z,93656.72
2023-04-26T19:01:30.936Z,93667.91
2023-04-26T19:03:57.849Z,93670.53
2023-04-26T19:06:24.703Z,93672.28
2023-04-26T19:08:51.627Z,93676.66
2023-04-26T19:11:18.477Z,93674.63
2023-04-26T19:13:45.326Z,93681.38
2023-04-26T19:16:12.420Z,93678.97
2023-04-26T19:18:44.089Z,93675.88
2023-04-26T19:21:10.894Z,93677.94
2023-04-26T19:23:38.018Z,93682.53
2023-04-26T19:26:06.131Z,93675.19
2023-04-26T19:28:33.222Z,93680.69
2023-04-26T19:31:01.863Z,93678.41
2023-04-26T19:33:28.825Z,93696.66
2023-04-26T19:35:58.460Z,93684.78
2023-04-26T19:38:25.744Z,93686.53
2023-04-26T19:40:53.115Z,93689.88
2023-04-26T19:43:20.497Z,93688.16
2023-04-26T19:45:47.708Z,93695.97
2023-04-26T19:48:14.402Z,93696.91
2023-04-26T19:50:45.840Z,93696.66
2023-04-26T19:53:14.355Z,93692.03
2023-04-26T19:55:42.242Z,93705.59
2023-04-26T19:58:10.796Z,93698.84
2023-04-26T20:00:39.846Z,93709.00
2023-04-26T20:03:07.014Z,93715.13
2023-04-26T20:05:34.144Z,93705.78
2023-04-26T20:08:02.050Z,93712.78
2023-04-26T20:10:33.657Z,93719.78
2023-04-26T20:13:00.952Z,93713.66
2023-04-26T20:15:27.893Z,93723.09
2023-04-26T20:17:55.119Z,93718.09
2023-04-26T20:20:22.062Z,93720.34
2023-04-26T20:22:48.837Z,93716.16
2023-04-26T20:25:15.741Z,93722.00
2023-04-26T20:27:42.402Z,93717.75
2023-04-26T20:30:09.529Z,93729.88
2023-04-26T20:32:36.157Z,93723.84
2023-04-26T20:35:02.982Z,93729.34
2023-04-26T20:37:29.578Z,93736.03
2023-04-26T20:39:57.499Z,93725.78
2023-04-26T20:42:24.893Z,93729.06
2023-04-26T20:44:51.556Z,93740.47
2023-04-26T20:47:18.341Z,93732.81
2023-04-26T20:49:44.980Z,93735.38
2023-04-26T20:52:11.640Z,93752.13
2023-04-26T20:54:38.254Z,93733.28
2023-04-26T20:57:04.924Z,93738.84
2023-04-26T20:59:31.503Z,93744.78
2023-04-26T21:01:58.311Z,93744.25
2023-04-26T21:04:25.364Z,93749.16
2023-04-26T21:06:52.202Z,93748.91
2023-04-26T21:09:18.896Z,93752.50
2023-04-26T21:11:45.527Z,93759.25
2023-04-26T21:14:13.793Z,93760.50
2023-04-26T21:16:40.717Z,93763.25
2023-04-26T21:19:08.295Z,93765.69
2023-04-26T21:21:35.215Z,93774.16
2023-04-26T21:24:02.996Z,93772.59
2023-04-26T21:26:29.872Z,93777.94
2023-04-26T21:28:56.569Z,93778.28
2023-04-26T21:31:23.586Z,93773.88
2023-04-26T21:33:50.850Z,93782.00
2023-04-26T21:36:17.656Z,93778.75
2023-04-26T21:38:44.859Z,93785.31
2023-04-26T21:41:11.543Z,93786.09
2023-04-26T21:43:38.225Z,93785.19
2023-04-26T21:46:05.016Z,93782.03
2023-04-26T21:48:31.740Z,93790.44
2023-04-26T21:50:58.432Z,93794.34
2023-04-26T21:53:25.226Z,93791.03
2023-04-26T21:55:53.008Z,93798.28
2023-04-26T21:58:20.774Z,93809.88
2023-04-26T22:00:47.876Z,93799.38
2023-04-26T22:03:15.203Z,93805.22
2023-04-26T22:05:42.124Z,93804.72
2023-04-26T22:08:08.862Z,93802.63
2023-04-26T22:10:36.463Z,93803.81
2023-04-26T22:13:04.351Z,93812.88
2023-04-26T22:15:31.309Z,93805.31
2023-04-26T22:17:57.966Z,93814.59
2023-04-26T22:20:24.719Z,93804.50
2023-04-26T22:22:51.554Z,93812.88
2023-04-26T22:25:18.175Z,93814.28
2023-04-26T22:27:44.755Z,93829.63
2023-04-26T22:30:22.994Z,93821.50
2023-04-26T22:32:52.834Z,93831.59
2023-04-26T22:35:24.065Z,93834.09
2023-04-26T22:37:51.282Z,93825.44
2023-04-26T22:40:18.205Z,93839.03
2023-04-26T22:42:45.063Z,93830.56
2023-04-26T22:45:12.558Z,93830.41
2023-04-26T22:47:40.293Z,93830.38
2023-04-26T22:50:07.841Z,93837.75
2023-04-26T22:52:34.985Z,93844.63
2023-04-26T22:55:01.800Z,93843.16
2023-04-26T22:57:29.657Z,93844.81
2023-04-26T22:59:56.534Z,93842.28
2023-04-26T23:02:23.501Z,93836.50
2023-04-26T23:04:50.389Z,93835.97
2023-04-26T23:07:17.200Z,93832.91
2023-04-26T23:09:43.867Z,93846.25
2023-04-26T23:12:10.660Z,93840.94
2023-04-26T23:14:37.930Z,93839.38
2023-04-26T23:17:05.695Z,93835.06
2023-04-26T23:19:33.274Z,93835.94
2023-04-26T23:22:00.169Z,93827.94
2023-04-26T23:24:27.069Z,93828.56
2023-04-26T23:26:53.813Z,93831.03
2023-04-26T23:29:22.440Z,93830.19
2023-04-26T23:31:49.157Z,93830.28
2023-04-26T23:34:16.012Z,93827.44
2023-04-26T23:36:42.679Z,93827.69
2023-04-26T23:39:09.286Z,93821.50
2023-04-26T23:41:36.087Z,93828.72
2023-04-26T23:44:02.782Z,93825.72
2023-04-26T23:46:29.659Z,93836.91
2023-04-26T23:48:56.338Z,93833.81
2023-04-26T23:51:22.968Z,93832.25
2023-04-26T23:53:49.665Z,93829.41
2023-04-26T23:56:16.358Z,93841.63
2023-04-26T23:58:43.276Z,93833.56
